Wildsville, Louisiana
Current Conditions -  °F | °C
As of 9:35 PM on Monday 22 Dec 2014 (Local Time) from KHEZ Reporting Station
Broken Clouds Broken Clouds  
Wind Chill: 66°   Ceiling: 3200
Heat Index: 66°   Visibility: 10mi
Dew Point: 61°   Wind: 9mph
Humidity: 83%   Direction: 210°SSW
Pressure: 29.7"   Gusts: NA
Location:  31.62°N, 91.78°W
Report Text: KHEZ 230335Z AUTO 21008KT 10SM BKN032 19/16 A2970 RMK AO1
Loading
Personal Weather Stations






























Interactive Weather Map New forecast layout! Learn more

10-Day Weather Forecast

Advertisements
Track Severe Weather on mobile